createdAt,value
2023-02-19T00:01:39.118Z,7.50
2023-02-19T00:04:11.462Z,7.47
2023-02-19T00:06:42.221Z,7.47
2023-02-19T00:09:13.540Z,7.50
2023-02-19T00:11:44.294Z,7.44
2023-02-19T00:14:18.428Z,7.47
2023-02-19T00:16:49.093Z,7.44
2023-02-19T00:19:21.910Z,7.46
2023-02-19T00:21:53.331Z,7.48
2023-02-19T00:24:24.279Z,7.48
2023-02-19T00:26:54.638Z,7.49
2023-02-19T00:29:25.066Z,7.48
2023-02-19T00:31:55.595Z,7.50
2023-02-19T00:34:25.996Z,7.52
2023-02-19T00:36:56.288Z,7.52
2023-02-19T00:39:26.650Z,7.52
2023-02-19T00:41:57.232Z,7.52
2023-02-19T00:44:27.548Z,7.56
2023-02-19T00:46:57.842Z,7.59
2023-02-19T00:49:28.185Z,7.61
2023-02-19T00:51:58.541Z,7.61
2023-02-19T00:54:29.095Z,7.61
2023-02-19T00:56:59.580Z,7.62
2023-02-19T00:59:30.009Z,7.64
2023-02-19T01:02:00.406Z,7.63
2023-02-19T01:04:30.874Z,7.63
2023-02-19T01:07:01.335Z,7.63
2023-02-19T01:09:32.294Z,7.64
2023-02-19T01:12:02.855Z,7.66
2023-02-19T01:14:33.437Z,7.66
2023-02-19T01:17:04.435Z,7.66
2023-02-19T01:19:34.862Z,7.65
2023-02-19T01:22:05.229Z,7.66
2023-02-19T01:24:35.560Z,7.66
2023-02-19T01:27:06.212Z,7.68
2023-02-19T01:29:36.960Z,7.69
2023-02-19T01:32:07.450Z,7.69
2023-02-19T01:34:37.931Z,7.68
2023-02-19T01:37:12.100Z,7.66
2023-02-19T01:39:43.514Z,7.63
2023-02-19T01:42:17.557Z,7.60
2023-02-19T01:52:03.781Z,7.57
2023-02-19T01:54:35.966Z,7.53
2023-02-19T01:57:08.221Z,7.52
2023-02-19T01:59:39.319Z,7.53
2023-02-19T02:02:09.760Z,7.54
2023-02-19T02:04:40.274Z,7.56
2023-02-19T02:07:25.198Z,7.56
2023-02-19T02:10:13.920Z,7.56
2023-02-19T02:12:44.257Z,7.58
2023-02-19T02:15:15.006Z,7.57
2023-02-19T02:17:54.283Z,7.59
2023-02-19T02:20:36.434Z,7.57
2023-02-19T02:23:13.867Z,7.53
2023-02-19T02:25:59.104Z,7.48
2023-02-19T02:28:46.391Z,7.44
2023-02-19T02:31:19.503Z,7.38
2023-02-19T02:33:55.693Z,7.33
2023-02-19T02:36:28.305Z,7.29
2023-02-19T02:38:59.862Z,7.24
2023-02-19T02:41:30.694Z,7.22
2023-02-19T02:44:01.075Z,7.17
2023-02-19T02:46:35.481Z,7.13
2023-02-19T02:49:07.896Z,7.05
2023-02-19T02:51:41.521Z,7.05
2023-02-19T02:54:37.429Z,7.03
2023-02-19T02:57:14.685Z,7.00
2023-02-19T02:59:57.732Z,7.00
2023-02-19T03:02:31.015Z,7.01
2023-02-19T03:05:22.295Z,7.10
2023-02-19T03:07:56.291Z,7.19
2023-02-19T03:10:29.795Z,7.23
2023-02-19T03:13:19.168Z,7.27
2023-02-19T03:16:15.172Z,7.32
2023-02-19T03:19:06.855Z,7.38
2023-02-19T03:21:39.071Z,7.39
2023-02-19T03:24:29.940Z,7.39
2023-02-19T03:27:02.359Z,7.40
2023-02-19T03:29:38.760Z,7.42
2023-02-19T03:32:12.716Z,7.46
2023-02-19T03:34:45.335Z,7.47
2023-02-19T03:37:21.767Z,7.44
2023-02-19T03:39:52.693Z,7.40
2023-02-19T03:42:31.496Z,7.39
2023-02-19T03:45:10.746Z,7.40
2023-02-19T03:47:49.019Z,7.41
2023-02-19T03:50:21.164Z,7.44
2023-02-19T03:52:56.979Z,7.46
2023-02-19T03:55:31.296Z,7.50
2023-02-19T03:58:07.045Z,7.54
2023-02-19T04:00:41.531Z,7.55
2023-02-19T04:03:16.803Z,7.56
2023-02-19T04:05:49.718Z,7.55
2023-02-19T04:08:21.607Z,7.53
2023-02-19T04:10:56.911Z,7.53
2023-02-19T04:13:31.725Z,7.51
2023-02-19T04:16:02.035Z,7.47
2023-02-19T04:18:34.032Z,7.43
2023-02-19T04:21:05.823Z,7.39
2023-02-19T04:23:38.756Z,7.38
2023-02-19T04:26:08.011Z,7.38
2023-02-19T04:28:38.450Z,7.37
2023-02-19T04:31:09.541Z,7.35
2023-02-19T04:33:40.162Z,7.33
2023-02-19T04:36:12.701Z,7.32
2023-02-19T04:38:43.035Z,7.31
2023-02-19T04:41:13.392Z,7.28
2023-02-19T04:43:43.692Z,7.24
2023-02-19T04:46:14.029Z,7.19
2023-02-19T04:48:44.358Z,7.17
2023-02-19T04:51:14.698Z,7.20
2023-02-19T04:53:45.209Z,7.24
2023-02-19T04:56:17.379Z,7.28
2023-02-19T04:58:48.193Z,7.31
2023-02-19T05:01:18.722Z,7.33
2023-02-19T05:03:49.268Z,7.34
2023-02-19T05:06:19.623Z,7.37
2023-02-19T05:08:49.909Z,7.40
2023-02-19T05:11:20.470Z,7.41
2023-02-19T05:13:50.776Z,7.40
2023-02-19T05:16:21.220Z,7.37
2023-02-19T05:18:51.685Z,7.35
2023-02-19T05:21:22.030Z,7.32
2023-02-19T05:23:52.348Z,7.31
2023-02-19T05:26:24.503Z,7.33
2023-02-19T05:28:55.786Z,7.34
2023-02-19T05:31:26.330Z,7.37
2023-02-19T05:33:57.318Z,7.40
2023-02-19T05:36:27.709Z,7.39
2023-02-19T05:38:59.182Z,7.40
2023-02-19T05:41:31.031Z,7.38
2023-02-19T05:44:01.321Z,7.38
2023-02-19T05:46:32.332Z,7.40
2023-02-19T05:49:03.256Z,7.41
2023-02-19T05:51:34.019Z,7.42
2023-02-19T05:54:04.513Z,7.39
2023-02-19T05:56:36.422Z,7.33
2023-02-19T05:59:09.884Z,7.29
2023-02-19T06:01:40.245Z,7.26
2023-02-19T06:04:11.232Z,7.24
2023-02-19T06:06:41.917Z,7.18
2023-02-19T06:09:12.991Z,7.12
2023-02-19T06:11:44.046Z,7.08
2023-02-19T06:14:15.214Z,7.02
2023-02-19T06:16:49.161Z,6.95
2023-02-19T06:19:19.703Z,6.95
2023-02-19T06:21:52.159Z,6.95
2023-02-19T06:24:22.479Z,7.01
2023-02-19T06:26:52.812Z,7.04
2023-02-19T06:29:23.122Z,7.10
2023-02-19T06:31:53.776Z,7.12
2023-02-19T06:34:24.106Z,7.13
2023-02-19T06:36:54.555Z,7.16
2023-02-19T06:39:24.906Z,7.19
2023-02-19T06:41:57.359Z,7.24
2023-02-19T06:44:27.673Z,7.28
2023-02-19T06:46:58.109Z,7.31
2023-02-19T06:49:28.641Z,7.34
2023-02-19T06:52:00.501Z,7.40
2023-02-19T06:54:31.457Z,7.45
2023-02-19T06:57:02.177Z,7.48
2023-02-19T06:59:32.453Z,7.48
2023-02-19T07:02:02.755Z,7.47
2023-02-19T07:04:33.172Z,7.48
2023-02-19T07:07:03.645Z,7.48
2023-02-19T07:09:33.998Z,7.49
2023-02-19T07:12:05.174Z,7.48
2023-02-19T07:14:35.866Z,7.45
2023-02-19T07:17:06.221Z,7.44
2023-02-19T07:19:36.544Z,7.45
2023-02-19T07:22:06.952Z,7.48
2023-02-19T07:24:37.258Z,7.49
2023-02-19T07:27:07.578Z,7.50
2023-02-19T07:29:38.510Z,7.51
2023-02-19T07:32:08.961Z,7.52
2023-02-19T07:34:39.405Z,7.55
2023-02-19T07:37:09.675Z,7.59
2023-02-19T07:39:40.005Z,7.61
2023-02-19T07:42:10.408Z,7.62
2023-02-19T07:44:41.446Z,7.60
2023-02-19T07:47:11.825Z,7.60
2023-02-19T07:49:42.193Z,7.61
2023-02-19T07:52:12.728Z,7.62
2023-02-19T07:54:44.789Z,7.63
2023-02-19T07:57:15.531Z,7.63
2023-02-19T07:59:45.896Z,7.61
2023-02-19T08:02:37.666Z,7.58
2023-02-19T08:05:09.004Z,7.63
2023-02-19T08:07:39.488Z,7.63
2023-02-19T08:10:33.611Z,7.62
2023-02-19T08:13:21.908Z,7.62
2023-02-19T08:15:55.115Z,7.61
2023-02-19T08:18:28.676Z,7.58
2023-02-19T08:21:00.046Z,7.50
2023-02-19T08:23:30.872Z,7.42
2023-02-19T08:26:02.547Z,7.34
2023-02-19T08:28:32.951Z,7.32
2023-02-19T08:31:05.469Z,7.34
2023-02-19T08:33:36.403Z,7.40
2023-02-19T08:36:08.872Z,7.44
2023-02-19T08:38:39.804Z,7.51
2023-02-19T08:41:12.073Z,7.57
2023-02-19T08:43:43.134Z,7.62
2023-02-19T08:46:14.088Z,7.69
2023-02-19T08:48:44.488Z,7.74
2023-02-19T08:51:15.153Z,7.79
2023-02-19T08:53:46.744Z,7.86
2023-02-19T08:56:18.575Z,7.98
2023-02-19T08:58:48.944Z,8.10
2023-02-19T09:01:20.765Z,8.20
2023-02-19T09:03:51.310Z,8.32
2023-02-19T09:06:22.320Z,8.45
2023-02-19T09:08:52.720Z,8.64
2023-02-19T09:11:23.699Z,8.79
2023-02-19T09:13:56.402Z,8.88
2023-02-19T09:16:26.760Z,8.88
2023-02-19T09:18:57.229Z,8.82
2023-02-19T09:21:27.688Z,8.71
2023-02-19T09:23:58.055Z,8.60
2023-02-19T09:26:28.517Z,8.42
2023-02-19T09:28:58.865Z,8.36
2023-02-19T09:31:29.560Z,8.25
2023-02-19T09:33:59.995Z,8.16
2023-02-19T09:36:30.403Z,8.07
2023-02-19T09:39:02.000Z,8.02
2023-02-19T09:41:36.745Z,7.97
2023-02-19T09:44:12.218Z,7.93
2023-02-19T09:46:46.741Z,7.92
2023-02-19T09:49:22.139Z,7.93
2023-02-19T09:51:56.774Z,7.92
2023-02-19T09:54:31.110Z,7.89
2023-02-19T09:57:04.801Z,7.82
2023-02-19T09:59:42.143Z,7.76
2023-02-19T10:02:18.793Z,7.71
2023-02-19T10:04:52.821Z,7.70
2023-02-19T10:07:26.643Z,7.68
2023-02-19T10:09:59.879Z,7.66
2023-02-19T10:12:35.805Z,7.64
2023-02-19T10:15:16.398Z,7.63
2023-02-19T10:17:47.845Z,7.62
2023-02-19T10:20:24.951Z,7.61
2023-02-19T10:23:01.898Z,7.61
2023-02-19T10:25:34.905Z,7.60
2023-02-19T10:28:08.053Z,7.59
2023-02-19T10:30:40.128Z,7.57
2023-02-19T10:33:14.850Z,7.57
2023-02-19T10:35:56.951Z,7.59
2023-02-19T10:45:21.321Z,7.71
2023-02-19T10:47:52.069Z,7.67
2023-02-19T10:50:29.217Z,7.62
2023-02-19T10:53:00.975Z,7.62
2023-02-19T10:55:36.752Z,7.66
2023-02-19T10:58:27.863Z,7.72
2023-02-19T11:01:15.652Z,7.77
2023-02-19T11:03:48.121Z,7.81
2023-02-19T11:06:24.948Z,7.85
2023-02-19T11:09:01.643Z,7.92
2023-02-19T11:11:46.144Z,8.07
2023-02-19T11:14:19.454Z,8.33
2023-02-19T11:16:52.299Z,8.51
2023-02-19T11:19:42.375Z,8.62
2023-02-19T11:22:28.557Z,8.65
2023-02-19T11:24:59.624Z,8.70
2023-02-19T11:27:30.055Z,8.83
2023-02-19T11:30:34.479Z,8.89
2023-02-19T11:33:31.980Z,8.95
2023-02-19T11:36:30.270Z,9.11
2023-02-19T11:39:04.264Z,9.26
2023-02-19T11:42:03.924Z,9.31
2023-02-19T11:44:43.934Z,9.22
2023-02-19T11:47:37.260Z,9.11
2023-02-19T11:50:15.628Z,9.11
2023-02-19T11:52:53.936Z,9.16
2023-02-19T11:55:45.919Z,9.17
2023-02-19T11:58:56.226Z,9.19
2023-02-19T12:01:36.059Z,9.17
2023-02-19T12:04:37.760Z,9.11
2023-02-19T12:07:18.441Z,8.96
2023-02-19T12:10:01.710Z,8.79
2023-02-19T12:12:52.973Z,8.72
2023-02-19T12:16:11.319Z,8.82
2023-02-19T12:19:13.627Z,8.90
2023-02-19T12:22:20.945Z,8.85
2023-02-19T12:25:37.172Z,8.84
2023-02-19T12:28:43.053Z,8.72
2023-02-19T12:34:52.422Z,8.52
2023-02-19T12:37:48.208Z,8.45
2023-02-19T12:40:28.107Z,8.46
2023-02-19T12:43:06.660Z,8.47
2023-02-19T12:45:41.377Z,8.51
2023-02-19T12:48:16.246Z,8.63
2023-02-19T12:50:48.956Z,8.77
2023-02-19T12:53:29.339Z,9.07
2023-02-19T12:56:00.186Z,9.23
2023-02-19T12:58:33.518Z,9.32
2023-02-19T13:01:04.450Z,9.26
2023-02-19T13:03:39.066Z,9.20
2023-02-19T13:06:24.839Z,9.09
2023-02-19T13:09:06.458Z,8.96
2023-02-19T13:11:39.753Z,8.89
2023-02-19T13:15:16.056Z,8.87
2023-02-19T13:17:59.882Z,8.85
2023-02-19T13:20:34.211Z,8.84
2023-02-19T13:23:22.988Z,8.92
2023-02-19T13:26:10.432Z,9.05
2023-02-19T13:28:50.180Z,9.14
2023-02-19T13:31:42.951Z,9.40
2023-02-19T13:34:21.663Z,9.54
2023-02-19T13:36:52.347Z,9.60
2023-02-19T13:39:23.374Z,9.59
2023-02-19T13:42:05.732Z,9.60
2023-02-19T13:44:36.606Z,9.59
2023-02-19T13:47:07.736Z,9.55
2023-02-19T13:49:47.063Z,9.52
2023-02-19T13:52:43.471Z,9.39
2023-02-19T13:55:48.476Z,9.31
2023-02-19T13:58:49.871Z,9.16
2023-02-19T14:01:20.253Z,9.11
2023-02-19T14:03:56.063Z,9.06
2023-02-19T14:06:28.723Z,9.01
2023-02-19T14:09:00.412Z,8.89
2023-02-19T14:12:04.178Z,8.86
2023-02-19T14:14:39.421Z,8.68
2023-02-19T14:17:29.744Z,8.60
2023-02-19T14:20:01.979Z,8.54
2023-02-19T14:23:01.436Z,8.57
2023-02-19T14:25:38.179Z,8.75
2023-02-19T14:28:17.915Z,8.91
2023-02-19T14:30:51.791Z,8.97
2023-02-19T14:33:25.066Z,9.04
2023-02-19T14:35:59.268Z,9.04
2023-02-19T14:38:31.460Z,9.02
2023-02-19T14:41:01.996Z,8.99
2023-02-19T14:43:33.419Z,8.99
2023-02-19T14:46:08.335Z,9.00
2023-02-19T14:48:40.918Z,9.01
2023-02-19T14:51:17.776Z,9.00
2023-02-19T14:53:48.222Z,9.01
2023-02-19T14:56:22.398Z,9.04
2023-02-19T14:59:10.165Z,9.03
2023-02-19T15:01:40.908Z,9.09
2023-02-19T15:04:24.145Z,9.09
2023-02-19T15:06:56.982Z,9.10
2023-02-19T15:09:34.390Z,9.09
2023-02-19T15:12:06.089Z,9.08
2023-02-19T15:14:36.642Z,9.06
2023-02-19T15:17:07.973Z,9.03
2023-02-19T15:19:39.635Z,8.99
2023-02-19T15:22:15.359Z,8.92
2023-02-19T15:24:48.660Z,8.78
2023-02-19T15:27:23.035Z,8.70
2023-02-19T15:29:54.553Z,8.65
2023-02-19T15:32:27.105Z,8.60
2023-02-19T15:34:58.920Z,8.54
2023-02-19T15:37:30.354Z,8.46
2023-02-19T15:40:02.251Z,8.37
2023-02-19T15:42:34.922Z,8.28
2023-02-19T15:45:12.264Z,8.22
2023-02-19T15:47:46.690Z,8.17
2023-02-19T15:50:18.686Z,8.09
2023-02-19T15:52:51.447Z,8.01
2023-02-19T15:55:30.100Z,7.93
2023-02-19T15:58:08.553Z,7.84
2023-02-19T16:00:43.184Z,7.76
2023-02-19T16:03:19.755Z,7.71
2023-02-19T16:06:00.534Z,7.63
2023-02-19T16:08:33.148Z,7.53
2023-02-19T16:11:05.387Z,7.44
2023-02-19T16:13:36.939Z,7.36
2023-02-19T16:16:17.106Z,7.29
2023-02-19T16:18:49.753Z,7.22
2023-02-19T16:21:23.142Z,7.15
2023-02-19T16:23:59.858Z,7.06
2023-02-19T16:26:31.820Z,6.97
2023-02-19T16:29:02.173Z,6.88
2023-02-19T16:31:32.623Z,6.82
2023-02-19T16:34:19.435Z,6.72
2023-02-19T16:36:49.962Z,6.69
2023-02-19T16:39:22.172Z,6.63
2023-02-19T16:42:19.203Z,6.54
2023-02-19T16:44:50.203Z,6.44
2023-02-19T16:47:27.702Z,6.38
2023-02-19T16:50:00.013Z,6.36
2023-02-19T16:52:31.116Z,6.34
2023-02-19T16:55:01.757Z,6.35
2023-02-19T16:57:32.369Z,6.39
2023-02-19T17:00:02.689Z,6.41
2023-02-19T17:02:33.389Z,6.54
2023-02-19T17:05:04.220Z,6.61
2023-02-19T17:07:34.553Z,6.60
2023-02-19T17:10:05.073Z,6.69
2023-02-19T17:12:35.781Z,6.72
2023-02-19T17:15:06.508Z,6.76
2023-02-19T17:17:36.802Z,6.77
2023-02-19T17:20:20.422Z,6.75
2023-02-19T17:22:49.238Z,6.64
2023-02-19T17:25:19.690Z,6.63
2023-02-19T17:27:50.221Z,6.56
2023-02-19T17:30:24.920Z,6.51
2023-02-19T17:32:55.300Z,6.45
2023-02-19T17:35:25.792Z,6.39
2023-02-19T17:37:56.107Z,6.33
2023-02-19T17:40:33.057Z,6.29
2023-02-19T17:43:04.181Z,6.28
2023-02-19T17:48:28.855Z,6.37
2023-02-19T17:50:59.824Z,6.40
2023-02-19T17:53:30.642Z,6.41
2023-02-19T17:56:00.938Z,6.42
2023-02-19T17:58:31.241Z,6.44
2023-02-19T18:01:01.810Z,6.46
2023-02-19T18:03:32.174Z,6.46
2023-02-19T18:06:02.523Z,6.45
2023-02-19T18:08:35.258Z,6.40
2023-02-19T18:11:07.284Z,6.38
2023-02-19T18:13:37.801Z,6.31
2023-02-19T18:16:09.979Z,6.35
2023-02-19T18:18:40.432Z,6.31
2023-02-19T18:21:12.476Z,6.23
2023-02-19T18:23:48.141Z,6.29
2023-02-19T18:26:24.627Z,6.30
2023-02-19T18:28:55.089Z,6.30
2023-02-19T18:31:28.277Z,6.22
2023-02-19T18:33:58.788Z,6.25
2023-02-19T18:36:29.257Z,6.24
2023-02-19T18:39:00.910Z,6.25
2023-02-19T18:41:31.670Z,6.26
2023-02-19T18:44:02.228Z,6.26
2023-02-19T18:46:33.087Z,6.25
2023-02-19T18:49:09.480Z,6.24
2023-02-19T18:51:41.408Z,6.26
2023-02-19T18:54:12.056Z,6.30
2023-02-19T18:56:46.860Z,6.34
2023-02-19T18:59:17.616Z,6.36
2023-02-19T19:01:48.294Z,6.36
2023-02-19T19:04:18.786Z,6.38
2023-02-19T19:06:49.172Z,6.41
2023-02-19T19:09:19.533Z,6.45
2023-02-19T19:11:49.845Z,6.47
2023-02-19T19:14:20.158Z,6.47
2023-02-19T19:16:51.023Z,6.47
2023-02-19T19:19:24.382Z,6.49
2023-02-19T19:21:56.445Z,6.46
2023-02-19T19:24:27.810Z,6.53
2023-02-19T19:27:01.351Z,6.55
2023-02-19T19:29:33.482Z,6.54
2023-02-19T19:32:08.191Z,6.53
2023-02-19T19:34:42.862Z,6.53
2023-02-19T19:37:14.295Z,6.53
2023-02-19T19:39:51.084Z,6.56
2023-02-19T19:42:24.351Z,6.57
2023-02-19T19:45:00.332Z,6.57
2023-02-19T19:47:33.196Z,6.56
2023-02-19T19:50:06.309Z,6.57
2023-02-19T19:52:40.091Z,6.58
2023-02-19T19:55:16.276Z,6.58
2023-02-19T19:57:50.217Z,6.57
2023-02-19T20:00:25.082Z,6.56
2023-02-19T20:02:56.881Z,6.55
2023-02-19T20:05:29.066Z,6.56
2023-02-19T20:08:01.199Z,6.58
2023-02-19T20:10:34.261Z,6.58
2023-02-19T20:13:07.077Z,6.57
2023-02-19T20:15:38.168Z,6.55
2023-02-19T20:18:10.903Z,6.52
2023-02-19T20:20:43.722Z,6.49
2023-02-19T20:23:15.864Z,6.48
2023-02-19T20:25:47.116Z,6.49
2023-02-19T20:28:18.443Z,6.48
2023-02-19T20:30:51.171Z,6.46
2023-02-19T20:33:23.500Z,6.43
2023-02-19T20:35:56.891Z,6.42
2023-02-19T20:46:16.476Z,6.45
2023-02-19T20:48:47.252Z,6.41
2023-02-19T20:51:17.647Z,6.32
2023-02-19T20:53:48.628Z,6.38
2023-02-19T20:56:19.119Z,6.37
2023-02-19T20:58:49.494Z,6.34
2023-02-19T21:01:19.868Z,6.33
2023-02-19T21:03:50.395Z,6.31
2023-02-19T21:06:20.707Z,6.31
2023-02-19T21:08:51.019Z,6.33
2023-02-19T21:11:21.553Z,6.34
2023-02-19T21:13:51.953Z,6.33
2023-02-19T21:16:22.703Z,6.32
2023-02-19T21:18:53.078Z,6.31
2023-02-19T21:21:26.269Z,6.33
2023-02-19T21:23:57.879Z,6.35
2023-02-19T21:26:35.491Z,6.36
2023-02-19T21:29:06.626Z,6.36
2023-02-19T21:31:41.680Z,6.35
2023-02-19T21:34:14.082Z,6.35
2023-02-19T21:36:45.339Z,6.36
2023-02-19T21:39:17.302Z,6.38
2023-02-19T21:41:47.965Z,6.37
2023-02-19T21:44:18.727Z,6.37
2023-02-19T21:46:49.184Z,6.36
2023-02-19T21:49:20.033Z,6.35
2023-02-19T21:51:50.438Z,6.36
2023-02-19T21:54:24.563Z,6.38
2023-02-19T21:56:56.236Z,6.38
2023-02-19T21:59:26.618Z,6.38
2023-02-19T22:01:57.687Z,6.35
2023-02-19T22:04:28.039Z,6.31
2023-02-19T22:06:58.906Z,6.30
2023-02-19T22:09:29.560Z,6.29
2023-02-19T22:12:00.113Z,6.27
2023-02-19T22:14:30.425Z,6.24
2023-02-19T22:17:00.738Z,6.21
2023-02-19T22:19:31.076Z,6.17
2023-02-19T22:22:01.402Z,6.13
2023-02-19T22:24:31.740Z,6.12
2023-02-19T22:27:02.113Z,6.13
2023-02-19T22:29:32.605Z,6.11
2023-02-19T22:32:03.165Z,6.08
2023-02-19T22:34:33.552Z,6.04
2023-02-19T22:37:03.921Z,6.02
2023-02-19T22:39:34.349Z,5.99
2023-02-19T22:42:05.005Z,5.98
2023-02-19T22:44:35.384Z,5.95
2023-02-19T22:47:05.866Z,5.90
2023-02-19T22:49:38.395Z,5.84
2023-02-19T22:52:10.764Z,5.77
2023-02-19T22:54:41.562Z,5.69
2023-02-19T22:57:11.909Z,5.63
2023-02-19T22:59:42.279Z,5.57
2023-02-19T23:02:13.125Z,5.51
2023-02-19T23:04:43.480Z,5.44
2023-02-19T23:07:13.791Z,5.37
2023-02-19T23:09:44.114Z,5.27
2023-02-19T23:12:14.600Z,5.21
2023-02-19T23:14:47.000Z,5.15
2023-02-19T23:17:17.400Z,5.10
2023-02-19T23:19:47.780Z,5.05
2023-02-19T23:22:18.250Z,4.98
2023-02-19T23:24:48.598Z,4.92
2023-02-19T23:27:19.012Z,4.85
2023-02-19T23:29:49.459Z,4.80
2023-02-19T23:32:21.173Z,4.78
2023-02-19T23:34:51.893Z,4.74
2023-02-19T23:37:22.252Z,4.71
2023-02-19T23:39:52.646Z,4.65
2023-02-19T23:42:22.983Z,4.60
2023-02-19T23:44:53.782Z,4.54
2023-02-19T23:47:26.611Z,4.50
2023-02-19T23:49:57.151Z,4.48
2023-02-19T23:52:27.778Z,4.46
2023-02-19T23:54:59.767Z,4.43
2023-02-19T23:57:30.183Z,4.37
